createdAt,value
2019-03-06T00:00:45.368Z,4.67
2019-03-06T00:03:14.766Z,4.63
2019-03-06T00:05:44.173Z,3.63
2019-03-06T00:08:13.266Z,4.33
2019-03-06T00:10:42.363Z,4.57
2019-03-06T00:13:11.095Z,5.10
2019-03-06T00:15:39.818Z,4.53
2019-03-06T00:18:09.137Z,4.17
2019-03-06T00:20:38.135Z,5.10
2019-03-06T00:23:06.829Z,4.80
2019-03-06T00:25:35.813Z,5.80
2019-03-06T00:28:04.807Z,5.50
2019-03-06T00:30:33.455Z,4.80
2019-03-06T00:33:03.102Z,5.17
2019-03-06T00:35:34.909Z,5.83
2019-03-06T00:38:04.083Z,5.30
2019-03-06T00:40:41.356Z,5.00
2019-03-06T00:43:10.226Z,5.40
2019-03-06T00:45:39.026Z,5.70
2019-03-06T00:48:08.189Z,5.63
2019-03-06T00:50:37.330Z,4.93
2019-03-06T00:53:06.091Z,5.03
2019-03-06T00:55:35.307Z,5.20
2019-03-06T00:58:04.025Z,4.93
2019-03-06T01:00:32.989Z,4.50
2019-03-06T01:03:01.986Z,5.03
2019-03-06T01:05:30.942Z,4.93
2019-03-06T01:07:59.580Z,4.23
2019-03-06T01:10:28.454Z,5.17
2019-03-06T01:12:57.755Z,4.70
2019-03-06T01:15:26.746Z,5.73
2019-03-06T01:17:55.976Z,4.73
2019-03-06T01:20:24.684Z,4.80
2019-03-06T01:22:53.421Z,5.37
2019-03-06T01:25:22.320Z,4.53
2019-03-06T01:27:50.950Z,5.27
2019-03-06T01:30:19.813Z,6.37
2019-03-06T01:32:51.139Z,5.90
2019-03-06T01:35:36.574Z,6.93
2019-03-06T01:38:21.177Z,6.87
2019-03-06T01:41:06.719Z,7.47
2019-03-06T01:43:57.934Z,9.00
2019-03-06T01:46:26.961Z,8.63
2019-03-06T01:48:55.601Z,9.40
2019-03-06T01:51:24.239Z,8.70
2019-03-06T01:53:53.167Z,9.30
2019-03-06T01:56:22.121Z,9.87
2019-03-06T01:58:50.746Z,9.17
2019-03-06T02:01:19.699Z,10.03
2019-03-06T02:03:49.100Z,10.83
2019-03-06T02:06:18.708Z,10.17
2019-03-06T02:08:47.714Z,10.70
2019-03-06T02:11:16.418Z,10.10
2019-03-06T02:13:45.689Z,11.63
2019-03-06T02:16:14.582Z,10.73
2019-03-06T02:18:43.882Z,12.80
2019-03-06T02:21:13.182Z,11.27
2019-03-06T02:23:42.488Z,10.67
2019-03-06T02:26:11.288Z,11.53
2019-03-06T02:28:40.372Z,12.83
2019-03-06T02:31:09.407Z,10.90
2019-03-06T02:33:38.045Z,11.00
2019-03-06T02:36:06.862Z,11.63
2019-03-06T02:38:35.830Z,11.13
2019-03-06T02:41:04.453Z,12.27
2019-03-06T02:43:33.065Z,12.33
2019-03-06T02:46:01.694Z,12.23
2019-03-06T02:48:30.889Z,13.57
2019-03-06T02:50:59.527Z,12.40
2019-03-06T02:53:28.774Z,13.47
2019-03-06T02:55:57.406Z,12.90
2019-03-06T02:58:32.191Z,12.47
2019-03-06T03:01:23.195Z,12.37
2019-03-06T03:04:17.019Z,13.70
2019-03-06T03:07:04.262Z,13.27
2019-03-06T03:09:33.306Z,13.20
2019-03-06T03:12:02.002Z,13.80
2019-03-06T03:14:30.639Z,14.70
2019-03-06T03:16:59.342Z,14.77
2019-03-06T03:19:28.342Z,14.10
2019-03-06T03:21:57.536Z,13.83
2019-03-06T03:24:26.174Z,14.37
2019-03-06T03:26:55.138Z,15.03
2019-03-06T03:29:24.111Z,14.87
2019-03-06T03:31:52.742Z,14.97
2019-03-06T03:34:21.710Z,14.83
2019-03-06T03:36:50.595Z,14.37
2019-03-06T03:39:19.791Z,15.23
2019-03-06T03:41:48.803Z,15.50
2019-03-06T03:44:17.431Z,15.20
2019-03-06T03:46:46.376Z,16.00
2019-03-06T03:49:15.654Z,15.43
2019-03-06T03:51:44.286Z,15.67
2019-03-06T03:54:12.974Z,15.90
2019-03-06T03:56:41.917Z,15.17
2019-03-06T03:59:11.216Z,15.40
2019-03-06T04:01:40.115Z,15.87
2019-03-06T04:04:09.110Z,16.20
2019-03-06T04:06:38.094Z,13.77
2019-03-06T04:09:07.498Z,16.40
2019-03-06T04:11:36.495Z,15.87
2019-03-06T04:14:05.792Z,17.47
2019-03-06T04:16:34.508Z,16.33
2019-03-06T04:19:03.471Z,17.23
2019-03-06T04:21:32.680Z,17.43
2019-03-06T04:24:01.323Z,17.60
2019-03-06T04:26:30.365Z,18.23
2019-03-06T04:28:59.639Z,17.33
2019-03-06T04:31:28.646Z,17.27
2019-03-06T04:33:57.740Z,15.40
2019-03-06T04:36:26.682Z,18.10
2019-03-06T04:38:55.422Z,17.90
2019-03-06T04:41:24.540Z,17.17
2019-03-06T04:43:53.817Z,18.93
2019-03-06T04:46:22.452Z,19.70
2019-03-06T04:48:51.090Z,19.60
2019-03-06T04:51:20.183Z,20.37
2019-03-06T04:53:49.415Z,20.57
2019-03-06T04:56:18.687Z,20.50
2019-03-06T04:58:47.880Z,20.03
2019-03-06T05:01:16.874Z,20.93
2019-03-06T05:03:46.060Z,22.03
2019-03-06T05:06:14.998Z,22.97
2019-03-06T05:08:43.663Z,21.80
2019-03-06T05:11:12.949Z,18.00
2019-03-06T05:13:42.151Z,21.37
2019-03-06T05:16:11.155Z,22.03
2019-03-06T05:18:52.077Z,18.43
2019-03-06T05:21:21.015Z,19.90
2019-03-06T05:23:50.157Z,23.10
2019-03-06T05:26:18.840Z,20.57
2019-03-06T05:28:48.031Z,22.13
2019-03-06T05:31:16.867Z,21.87
2019-03-06T05:33:45.490Z,22.30
2019-03-06T05:36:45.810Z,21.37
2019-03-06T05:39:14.789Z,22.77
2019-03-06T05:41:43.431Z,18.33
2019-03-06T05:44:12.671Z,19.60
2019-03-06T05:46:41.970Z,24.47
2019-03-06T05:49:10.833Z,23.10
2019-03-06T05:51:39.460Z,21.03
2019-03-06T05:54:08.369Z,21.90
2019-03-06T05:56:37.571Z,20.87
2019-03-06T05:59:06.336Z,21.80
2019-03-06T06:01:35.627Z,20.83
2019-03-06T06:04:04.597Z,20.30
2019-03-06T06:06:33.189Z,20.50
2019-03-06T06:09:02.324Z,17.97
2019-03-06T06:11:31.195Z,21.27
2019-03-06T06:14:00.626Z,21.03
2019-03-06T06:16:29.838Z,20.83
2019-03-06T06:18:58.506Z,22.27
2019-03-06T06:21:44.553Z,19.07
2019-03-06T06:24:24.815Z,20.50
2019-03-06T06:26:53.582Z,21.23
2019-03-06T06:29:22.184Z,19.57
2019-03-06T06:31:50.812Z,21.27
2019-03-06T06:34:19.545Z,18.87
2019-03-06T06:36:48.439Z,17.90
2019-03-06T06:39:17.104Z,21.67
2019-03-06T06:41:46.086Z,18.77
2019-03-06T06:44:14.699Z,22.53
2019-03-06T06:46:43.711Z,20.57
2019-03-06T06:49:12.354Z,20.80
2019-03-06T06:51:56.675Z,20.70
2019-03-06T06:54:37.137Z,21.37
2019-03-06T06:57:40.140Z,18.87
2019-03-06T07:00:19.567Z,21.37
2019-03-06T07:03:41.778Z,20.40
2019-03-06T07:06:35.577Z,18.90
2019-03-06T07:09:20.239Z,18.63
2019-03-06T07:11:59.423Z,17.23
2019-03-06T07:14:43.610Z,19.70
2019-03-06T07:17:40.667Z,17.90
2019-03-06T07:20:31.676Z,17.93
2019-03-06T07:23:07.160Z,21.47
2019-03-06T07:25:57.774Z,21.17
2019-03-06T07:28:40.034Z,16.97
2019-03-06T07:31:31.010Z,21.40
2019-03-06T07:34:11.248Z,20.50
2019-03-06T07:37:05.045Z,20.07
2019-03-06T07:39:40.523Z,20.07
2019-03-06T07:42:27.104Z,20.97
2019-03-06T07:46:01.049Z,20.43
2019-03-06T07:49:11.075Z,21.33
2019-03-06T07:51:57.817Z,20.00
2019-03-06T07:54:37.973Z,17.13
2019-03-06T07:57:37.884Z,19.53
2019-03-06T08:00:16.732Z,17.57
2019-03-06T08:03:07.524Z,18.33
2019-03-06T08:05:36.403Z,19.73
2019-03-06T08:08:05.286Z,18.77
2019-03-06T08:10:36.060Z,19.50
2019-03-06T08:13:33.023Z,18.03
2019-03-06T08:16:33.456Z,18.57
2019-03-06T08:19:23.905Z,17.40
2019-03-06T08:22:00.362Z,17.57
2019-03-06T08:24:40.021Z,17.37
2019-03-06T08:27:09.011Z,15.80
2019-03-06T08:29:37.957Z,18.13
2019-03-06T08:32:14.290Z,16.07
2019-03-06T08:34:42.987Z,16.77
2019-03-06T08:37:11.589Z,16.60
2019-03-06T08:39:40.500Z,15.50
2019-03-06T08:42:09.560Z,16.47
2019-03-06T08:44:38.676Z,16.00
2019-03-06T08:47:25.464Z,15.33
2019-03-06T08:50:11.019Z,16.43
2019-03-06T08:52:47.231Z,16.87
2019-03-06T08:55:22.511Z,16.23
2019-03-06T09:01:59.802Z,15.73
2019-03-06T09:05:28.576Z,15.03
2019-03-06T09:08:22.356Z,14.70
2019-03-06T09:11:03.069Z,14.37
2019-03-06T09:13:56.276Z,14.50
2019-03-06T09:16:33.682Z,14.83
2019-03-06T09:19:21.446Z,15.23
2019-03-06T09:22:02.742Z,15.13
2019-03-06T09:24:49.476Z,14.87
2019-03-06T09:27:42.939Z,12.87
2019-03-06T09:30:26.272Z,14.10
2019-03-06T09:33:00.247Z,14.30
2019-03-06T09:35:47.295Z,13.77
2019-03-06T09:38:31.860Z,12.77
2019-03-06T09:41:19.346Z,14.03
2019-03-06T09:43:59.673Z,11.40
2019-03-06T09:46:40.476Z,13.23
2019-03-06T09:49:15.825Z,12.47
2019-03-06T09:52:15.835Z,12.80
2019-03-06T09:55:02.922Z,12.73
2019-03-06T09:57:43.776Z,13.27
2019-03-06T10:00:32.710Z,13.77
2019-03-06T10:03:13.699Z,12.47
2019-03-06T10:05:54.107Z,12.03
2019-03-06T10:08:36.777Z,11.60
2019-03-06T10:11:17.207Z,12.47
2019-03-06T10:13:57.374Z,11.53
2019-03-06T10:16:48.615Z,10.93
2019-03-06T10:19:26.367Z,10.83
2019-03-06T10:21:55.117Z,11.43
2019-03-06T10:24:23.847Z,9.90
2019-03-06T10:26:52.849Z,9.63
2019-03-06T10:29:22.172Z,9.67
2019-03-06T10:31:51.075Z,10.10
2019-03-06T10:34:20.372Z,7.80
2019-03-06T10:36:49.870Z,9.37
2019-03-06T10:39:18.754Z,8.53
2019-03-06T10:41:47.495Z,9.17
2019-03-06T10:44:17.266Z,8.47
2019-03-06T10:46:45.877Z,8.63
2019-03-06T10:49:15.039Z,8.40
2019-03-06T10:51:43.989Z,8.37
2019-03-06T10:54:12.985Z,8.37
2019-03-06T10:56:41.967Z,8.20
2019-03-06T10:59:10.662Z,8.23
2019-03-06T11:01:39.347Z,6.50
2019-03-06T11:04:39.321Z,7.53
2019-03-06T11:07:08.099Z,6.53
2019-03-06T11:09:37.001Z,7.30
2019-03-06T11:12:07.331Z,7.20
2019-03-06T11:14:36.474Z,7.00
2019-03-06T11:17:05.221Z,6.93
2019-03-06T11:19:34.332Z,5.53
2019-03-06T11:22:03.576Z,6.30
2019-03-06T11:24:32.296Z,6.60
2019-03-06T11:27:01.076Z,6.03
2019-03-06T11:29:30.049Z,6.97
2019-03-06T11:31:58.778Z,7.70
2019-03-06T11:34:27.779Z,5.43
2019-03-06T11:36:57.452Z,6.10
2019-03-06T11:39:26.444Z,5.37
2019-03-06T11:41:55.496Z,4.87
2019-03-06T11:44:24.147Z,4.67
2019-03-06T11:46:53.169Z,4.67
2019-03-06T11:49:21.839Z,5.07
2019-03-06T11:51:50.750Z,6.57
2019-03-06T11:54:19.694Z,7.20
2019-03-06T11:56:48.628Z,7.10
2019-03-06T11:59:17.370Z,7.17
2019-03-06T12:01:48.235Z,5.90
2019-03-06T12:04:17.321Z,6.37
2019-03-06T12:06:46.113Z,6.33
2019-03-06T12:09:32.250Z,6.93
2019-03-06T12:12:01.692Z,5.63
2019-03-06T12:14:30.480Z,5.93
2019-03-06T12:16:59.668Z,6.30
2019-03-06T12:19:28.394Z,7.30
2019-03-06T12:21:57.346Z,7.33
2019-03-06T12:24:26.209Z,6.50
2019-03-06T12:26:55.360Z,6.37
2019-03-06T12:29:24.401Z,6.53
2019-03-06T12:31:53.639Z,6.73
2019-03-06T12:34:22.507Z,6.63
2019-03-06T12:36:51.324Z,6.80
2019-03-06T12:39:20.783Z,5.40
2019-03-06T12:41:49.707Z,5.80
2019-03-06T12:44:18.327Z,6.47
2019-03-06T12:46:50.193Z,6.23
2019-03-06T12:49:20.318Z,6.43
2019-03-06T12:51:54.311Z,5.63
2019-03-06T12:54:19.488Z,6.60
2019-03-06T12:56:48.254Z,5.10
2019-03-06T12:59:17.349Z,4.63
2019-03-06T13:01:46.122Z,6.60
2019-03-06T13:04:14.892Z,6.77
2019-03-06T13:06:43.731Z,5.77
2019-03-06T13:09:17.226Z,5.53
2019-03-06T13:11:45.957Z,6.00
2019-03-06T13:14:14.851Z,5.80
2019-03-06T13:16:44.027Z,6.40
2019-03-06T13:19:13.211Z,6.40
2019-03-06T13:21:42.011Z,5.90
2019-03-06T13:24:10.676Z,5.20
2019-03-06T13:26:39.407Z,5.47
2019-03-06T13:29:08.091Z,4.50
2019-03-06T13:31:36.994Z,5.97
2019-03-06T13:34:13.784Z,5.30
2019-03-06T13:36:42.407Z,4.73
2019-03-06T13:39:11.636Z,5.50
2019-03-06T13:41:40.814Z,5.23
2019-03-06T13:44:10.164Z,5.33
2019-03-06T13:46:38.841Z,5.07
2019-03-06T13:49:08.299Z,5.20
2019-03-06T13:51:37.256Z,5.10
2019-03-06T13:54:06.303Z,5.30
2019-03-06T13:56:35.381Z,5.30
2019-03-06T13:59:04.505Z,5.23
2019-03-06T14:01:33.167Z,5.50
2019-03-06T14:04:01.913Z,6.03
2019-03-06T14:06:30.542Z,5.10
2019-03-06T14:08:59.423Z,5.37
2019-03-06T14:11:28.384Z,4.93
2019-03-06T14:13:57.238Z,5.00
2019-03-06T14:16:26.231Z,5.33
2019-03-06T14:18:55.124Z,5.73
2019-03-06T14:21:24.085Z,4.60
2019-03-06T14:23:52.769Z,5.03
2019-03-06T14:26:21.791Z,5.40
2019-03-06T14:28:50.916Z,5.27
2019-03-06T14:31:19.678Z,4.80
2019-03-06T14:33:48.390Z,5.00
2019-03-06T14:36:17.686Z,5.60
2019-03-06T14:38:46.589Z,5.77
2019-03-06T14:41:15.451Z,5.40
2019-03-06T14:43:44.188Z,5.53
2019-03-06T14:46:16.462Z,4.63
2019-03-06T14:48:43.668Z,5.70
2019-03-06T14:51:13.939Z,5.23
2019-03-06T14:53:42.997Z,5.87
2019-03-06T14:56:11.952Z,5.00
2019-03-06T14:58:41.017Z,5.40
2019-03-06T15:01:09.941Z,5.90
2019-03-06T15:03:38.559Z,5.70
2019-03-06T15:06:07.657Z,5.73
2019-03-06T15:08:36.378Z,5.00
2019-03-06T15:11:05.439Z,6.03
2019-03-06T15:13:34.330Z,6.13
2019-03-06T15:16:03.575Z,5.47
2019-03-06T15:18:32.220Z,5.73
2019-03-06T15:21:01.558Z,5.27
2019-03-06T15:23:31.052Z,5.60
2019-03-06T15:25:59.977Z,5.10
2019-03-06T15:28:29.469Z,5.53
2019-03-06T15:30:58.642Z,5.47
2019-03-06T15:33:27.602Z,5.60
2019-03-06T15:35:56.339Z,5.17
2019-03-06T15:38:25.253Z,4.87
2019-03-06T15:40:54.311Z,5.67
2019-03-06T15:43:23.476Z,5.50
2019-03-06T15:45:53.706Z,5.87
2019-03-06T15:48:23.151Z,6.23
2019-03-06T15:50:51.917Z,5.40
2019-03-06T15:53:24.581Z,6.70
2019-03-06T15:55:51.879Z,5.87
2019-03-06T15:58:20.844Z,6.07
2019-03-06T16:00:50.020Z,5.23
2019-03-06T16:03:18.655Z,6.10
2019-03-06T16:05:47.787Z,5.90
2019-03-06T16:08:16.775Z,5.67
2019-03-06T16:10:46.075Z,6.43
2019-03-06T16:13:15.295Z,6.07
2019-03-06T16:15:44.295Z,5.97
2019-03-06T16:18:13.245Z,6.20
2019-03-06T16:20:44.699Z,6.37
2019-03-06T16:23:15.699Z,6.07
2019-03-06T16:25:44.456Z,5.63
2019-03-06T16:28:13.217Z,4.97
2019-03-06T16:30:42.436Z,5.70
2019-03-06T16:33:11.427Z,6.60
2019-03-06T16:35:40.601Z,6.03
2019-03-06T16:38:09.535Z,6.10
2019-03-06T16:40:38.563Z,6.43
2019-03-06T16:43:07.312Z,6.30
2019-03-06T16:45:35.986Z,5.60
2019-03-06T16:48:04.687Z,6.03
2019-03-06T16:50:33.435Z,5.50
2019-03-06T16:53:02.759Z,6.07
2019-03-06T16:55:31.842Z,4.80
2019-03-06T16:58:01.154Z,5.73
2019-03-06T17:00:31.167Z,4.23
2019-03-06T17:03:01.701Z,5.10
2019-03-06T17:05:31.132Z,5.63
2019-03-06T17:08:04.203Z,5.53
2019-03-06T17:10:41.008Z,5.20
2019-03-06T17:13:10.506Z,4.70
2019-03-06T17:15:39.594Z,4.90
2019-03-06T17:18:08.707Z,5.00
2019-03-06T17:20:37.395Z,4.80
2019-03-06T17:23:06.260Z,4.57
2019-03-06T17:25:35.842Z,4.60
2019-03-06T17:28:04.883Z,5.37
2019-03-06T17:30:33.652Z,5.13
2019-03-06T17:33:04.602Z,5.50
2019-03-06T17:35:33.983Z,5.60
2019-03-06T17:38:04.002Z,4.87
2019-03-06T17:40:32.995Z,5.33
2019-03-06T17:43:02.186Z,5.37
2019-03-06T17:45:30.906Z,5.10
2019-03-06T17:48:00.013Z,5.50
2019-03-06T17:50:28.946Z,5.33
2019-03-06T17:52:58.017Z,5.10
2019-03-06T17:55:26.788Z,5.57
2019-03-06T17:57:55.751Z,5.20
2019-03-06T18:00:30.884Z,4.87
2019-03-06T18:03:00.605Z,4.70
2019-03-06T18:05:29.889Z,4.67
2019-03-06T18:07:59.192Z,5.80
2019-03-06T18:10:28.208Z,5.57
2019-03-06T18:12:56.884Z,5.23
2019-03-06T18:15:26.019Z,5.73
2019-03-06T18:17:54.630Z,5.30
2019-03-06T18:20:23.545Z,5.70
2019-03-06T18:22:52.846Z,6.27
2019-03-06T18:25:21.819Z,5.57
2019-03-06T18:27:50.728Z,5.33
2019-03-06T18:30:19.719Z,5.53
2019-03-06T18:32:48.922Z,4.80
2019-03-06T18:35:17.660Z,5.63
2019-03-06T18:37:47.123Z,5.93
2019-03-06T18:40:16.890Z,5.33
2019-03-06T18:42:46.448Z,5.13
2019-03-06T18:45:16.588Z,5.47
2019-03-06T18:47:45.601Z,5.67
2019-03-06T18:50:17.307Z,5.43
2019-03-06T18:52:46.807Z,5.77
2019-03-06T18:55:15.837Z,4.87
2019-03-06T18:57:44.565Z,5.30
2019-03-06T19:00:16.233Z,5.30
2019-03-06T19:02:44.867Z,5.80
2019-03-06T19:05:14.379Z,5.47
2019-03-06T19:07:46.549Z,5.87
2019-03-06T19:10:17.289Z,4.90
2019-03-06T19:12:46.565Z,5.73
2019-03-06T19:15:17.174Z,5.43
2019-03-06T19:17:46.168Z,5.87
2019-03-06T19:20:16.917Z,5.47
2019-03-06T19:22:46.082Z,5.53
2019-03-06T19:25:15.705Z,5.90
2019-03-06T19:27:44.545Z,5.33
2019-03-06T19:30:20.731Z,5.83
2019-03-06T19:32:50.162Z,5.40
2019-03-06T19:35:19.770Z,5.63
2019-03-06T19:37:48.868Z,6.13
2019-03-06T19:40:18.083Z,5.70
2019-03-06T19:42:47.467Z,5.70
2019-03-06T19:45:17.575Z,6.17
2019-03-06T19:47:50.634Z,6.40
2019-03-06T19:50:20.782Z,5.90
2019-03-06T19:52:49.775Z,5.37
2019-03-06T19:55:19.315Z,5.87
2019-03-06T19:57:49.756Z,5.93
2019-03-06T20:00:18.945Z,5.90
2019-03-06T20:02:48.135Z,5.77
2019-03-06T20:05:17.625Z,5.20
2019-03-06T20:07:47.239Z,6.77
2019-03-06T20:10:16.139Z,5.70
2019-03-06T20:12:45.340Z,7.10
2019-03-06T20:15:14.939Z,5.87
2019-03-06T20:17:43.682Z,6.93
2019-03-06T20:20:12.943Z,6.60
2019-03-06T20:22:42.019Z,6.40
2019-03-06T20:25:10.770Z,5.63
2019-03-06T20:27:39.400Z,6.80
2019-03-06T20:30:08.450Z,7.17
2019-03-06T20:32:37.788Z,8.03
2019-03-06T20:35:06.518Z,7.57
2019-03-06T20:37:35.316Z,5.87
2019-03-06T20:40:07.935Z,7.30
2019-03-06T20:42:43.927Z,7.40
2019-03-06T20:45:13.131Z,7.03
2019-03-06T20:47:41.840Z,7.53
2019-03-06T20:50:10.971Z,7.70
2019-03-06T20:52:39.988Z,8.07
2019-03-06T20:55:09.383Z,8.07
2019-03-06T20:57:38.062Z,8.20
2019-03-06T21:00:08.352Z,8.67
2019-03-06T21:02:37.388Z,8.13
2019-03-06T21:05:06.794Z,8.17
2019-03-06T21:07:44.600Z,8.27
2019-03-06T21:10:06.249Z,8.77
2019-03-06T21:12:35.517Z,8.70
2019-03-06T21:15:05.248Z,9.57
2019-03-06T21:17:34.757Z,9.10
2019-03-06T21:20:03.931Z,9.00
2019-03-06T21:22:32.870Z,9.60
2019-03-06T21:25:01.919Z,8.53
2019-03-06T21:27:32.453Z,9.20
2019-03-06T21:30:05.214Z,9.00
2019-03-06T21:32:34.633Z,10.10
2019-03-06T21:35:03.453Z,9.60
2019-03-06T21:37:32.362Z,9.67
2019-03-06T21:40:01.223Z,9.57
2019-03-06T21:42:34.155Z,9.40
2019-03-06T21:45:02.904Z,9.47
2019-03-06T21:47:32.607Z,9.60
2019-03-06T21:50:01.240Z,9.73
2019-03-06T21:52:29.899Z,8.73
2019-03-06T21:54:59.626Z,10.60
2019-03-06T21:57:28.531Z,8.20
2019-03-06T21:59:57.684Z,9.90
2019-03-06T22:02:26.812Z,10.10
2019-03-06T22:04:55.786Z,9.83
2019-03-06T22:07:25.004Z,10.70
2019-03-06T22:09:53.922Z,10.03
2019-03-06T22:12:22.957Z,10.00
2019-03-06T22:14:51.885Z,10.57
2019-03-06T22:17:21.069Z,11.47
2019-03-06T22:19:51.137Z,10.03
2019-03-06T22:22:19.867Z,11.60
2019-03-06T22:24:49.029Z,10.63
2019-03-06T22:27:17.662Z,10.20
2019-03-06T22:29:46.565Z,11.63
2019-03-06T22:32:15.576Z,11.63
2019-03-06T22:34:44.525Z,11.17
2019-03-06T22:37:13.511Z,11.43
2019-03-06T22:39:42.642Z,10.87
2019-03-06T22:42:11.283Z,11.03
2019-03-06T22:44:39.917Z,10.17
2019-03-06T22:47:08.919Z,10.00
2019-03-06T22:49:40.110Z,10.73
2019-03-06T22:52:08.721Z,10.63
2019-03-06T22:54:37.362Z,9.90
2019-03-06T22:57:06.442Z,9.83
2019-03-06T22:59:35.575Z,10.43
2019-03-06T23:02:04.399Z,10.40
2019-03-06T23:04:33.268Z,9.23
2019-03-06T23:07:02.422Z,9.97
2019-03-06T23:09:31.312Z,9.23
2019-03-06T23:11:59.950Z,9.53
2019-03-06T23:14:28.890Z,9.07
2019-03-06T23:16:57.809Z,9.20
2019-03-06T23:19:26.418Z,10.20
2019-03-06T23:21:55.260Z,8.80
2019-03-06T23:24:23.974Z,9.13
2019-03-06T23:26:52.769Z,9.43
2019-03-06T23:29:21.948Z,8.87
2019-03-06T23:31:50.641Z,8.97
2019-03-06T23:34:19.651Z,8.03
2019-03-06T23:36:48.546Z,9.03
2019-03-06T23:39:17.441Z,9.33
2019-03-06T23:41:46.052Z,9.17
2019-03-06T23:44:15.084Z,7.53
2019-03-06T23:46:43.773Z,7.70
2019-03-06T23:49:12.646Z,8.83
2019-03-06T23:51:59.254Z,8.57
2019-03-06T23:54:30.791Z,9.43
2019-03-06T23:56:59.921Z,8.57
2019-03-06T23:59:28.578Z,7.83
